Atlanta, Georgia
Traffic Map
Current Weather Conditions
Atlanta, Georgia
Clear
Clear

Feels Like: 0°
Wind Chill: Ceiling: Unl
Heat Index: Visibility: 10mi
Dew Point: -16° Wind: 14mph
Humidity: 22% Direction: 340° (NNW)
Pressure: 30.35in Gusts: 0mph
Raw Report DataKATL 131852Z 34012KT 10SM CLR 04/M16 A3035 RMK AO2 SLP285 T00441156
Traffic Incident Summary
Active as of:
Severity:
Category:
InformationThere was an issue retrieving the traffic information for this location. Please try a different location or try again shortly.
Advertisements
Track Severe Weather on mobile